CheckWX is a tool to help pilots better visualize weather data.  It is not intended as a substitute for an official pre-flight weather briefing.

02:55:56 UTC

KTOI METAR
Troy Municipal at N Kenneth Campbell Field Airport
Troy, Alabama, USA
Current

1 hour ago

KTOI 230153Z AUTO 16004KT 10SM CLR 24/24 A2996 RMK AO2 SLP141 T02440239
Observed
Jul-23 @ 01:53 UTC
Wind
  • 160° at 4 KTS
Visibility
10 SM
Flight Rules
VFR
Cloud Levels
  • Clear skies
Temperature
24°C / 75°F
Dewpoint
24°C / 75°F
Humidity
100%
Altimeter
29.96" Hg
Pressure
1014.52 hPa
Previous

2 hours ago

KTOI 230053Z AUTO 20004KT 10SM CLR 26/23 A2995 RMK AO2 LTG DSNT SW RAB02E11 SLP137 P0000 T02560233
Observed
Jul-23 @ 00:53 UTC
Wind
  • 200° at 4 KTS
Visibility
10 SM
Flight Rules
VFR
Cloud Levels
  • Clear skies
Temperature
26°C / 79°F
Dewpoint
23°C / 73°F
Humidity
84%
Altimeter
29.95" Hg
Pressure
1014.22 hPa
Current Rain
0.01"
Previous

3 hours ago

KTOI 222353Z AUTO 20005KT 10SM CLR 27/23 A2994 RMK AO2 RAE08 SLP134 P0000 60000 T02720228 10322 20261 58003
Observed
Jul-22 @ 23:53 UTC
Wind
  • 200° at 5 KTS
Visibility
10 SM
Flight Rules
VFR
Cloud Levels
  • Clear skies
Temperature
27°C / 81°F
Dewpoint
23°C / 73°F
Heat Index
30°C / 86°F
Humidity
79%
Altimeter
29.94" Hg
Pressure
1013.92 hPa
Current Rain
0.01"